Lake Worth, FL (33460)

11:41 AM EST on February 10, 2016 (GMT -0500)
College Park | | Change Station
CLOSE
Current Station
Personal Weather Station
Location: Lake Worth, FL
Elevation: 20 ft
Nearby Weather Stations

Elev 20 ft 26.64 °N, 80.05 °W | Updated 2 seconds ago

Mostly Cloudy
Mostly Cloudy
58.6 °F
Feels Like 58.6 °F
N
4.0
Wind Variable Wind from NW
Gusts 9.0 mph

Today
High -- | Low -- °F
--% Chance of Precip.
Yesterday
High -- | Low -- °F
Precip. -- in
Pressure 30.27 in
Visibility 10.0 miles
Clouds Few 4200 ft
Mostly Cloudy 25000 ft
Dew Point 36 °F
Humidity 43%
Rainfall 0.00 in
Snow Depth Not available.
7:00 AM 6:09 PM
Waxing Crescent, 6% visible
METAR KPBI 101553Z 34012KT 10SM FEW042 BKN250 14/M03 A3027 RMK AO2 SLP249 T01391028
Pressure 30.27 in
Visibility 10.0 miles
Clouds Few 4200 ft
Mostly Cloudy 25000 ft
Dew Point 36 °F
Humidity 43%
Rainfall 0.00 in
Snow Depth Not available.
7:00 AM 6:09 PM
Waxing Crescent, 6% visible
METAR KPBI 101553Z 34012KT 10SM FEW042 BKN250 14/M03 A3027 RMK AO2 SLP249 T01391028

10-Day Weather Forecast

Almanac

Astronomy

Feb. 10, 2016 Rise Set
Actual Time
Civil Twilight
Nautical Twilight
Astronomical Twilight
Moon
Length of Visible Light
Length of Day
Tomorrow will be .
, % of the Moon is Illuminated

Today's Extremes

State Highs State Lows

Community

WunderPhotos

Upload Photos

1,891,891 photos uploaded!

WunderBlog® & News

Nearby

Air Quality

  Air Quality AQ Index Pollutant
Not available.

Snow Depth

Station Depth Elevation

Earthquake Activity

City Distance Mag. Time & Date
Minimum magnitude displayed is 2.5.

Coastal Water Temperatures

Place Temperature

Stations

Nearby Weather Stations

Station Location Temp. Windchill Dew Point Humidity Wind Precip. Elev Updated Type
                   

Watches & Warnings

There are currently no watches in effect.